Ada, Minnesota
Current Conditions -  °F | °C
As of 4:15 AM on Sunday 25 Jan 2015 (Local Time) from K3N8 Reporting Station
Overcast Overcast  
Wind Chill:   Ceiling: 8500
Heat Index: 18°   Visibility: 10mi
Dew Point: 14°   Wind: 8mph
Humidity: 82%   Direction: 30°NNE
Pressure: 29.9"   Gusts: NA
Location:  47.3°N, 96.52°W
Report Text: K3N8 251015Z AUTO 03007KT 10SM OVC085 M08/M10 A2990 RMK AO2 T10761102
Loading
Personal Weather Stations






























Interactive Weather Map New forecast layout! Learn more

10-Day Weather Forecast

Advertisements
Track Severe Weather on mobile